createdAt,value
2023-03-05T15:22:57.230Z,44.13
2023-03-05T15:23:59.849Z,43.09
2023-03-05T15:25:02.368Z,42.82
2023-03-05T15:26:07.443Z,41.71
2023-03-05T15:27:10.051Z,41.33
2023-03-05T15:28:12.572Z,41.27
2023-03-05T15:29:15.049Z,40.24
2023-03-05T15:30:22.530Z,39.74
2023-03-05T15:31:25.055Z,39.38
2023-03-05T15:32:28.271Z,39.78
2023-03-05T15:33:31.723Z,39.10
2023-03-05T15:34:34.704Z,39.00
2023-03-05T15:35:38.048Z,38.59
2023-03-05T15:36:40.666Z,38.08
2023-03-05T15:37:43.308Z,38.34
2023-03-05T15:38:48.427Z,38.23
2023-03-05T15:39:50.983Z,38.13
2023-03-05T15:40:53.540Z,38.14
2023-03-05T15:41:56.702Z,38.43
2023-03-05T15:43:00.454Z,38.04
2023-03-05T15:44:03.105Z,38.15
2023-03-05T15:45:06.897Z,38.74
2023-03-05T15:46:09.463Z,38.61
2023-03-05T15:47:12.046Z,38.60
2023-03-05T15:48:14.581Z,38.19
2023-03-05T15:49:17.371Z,38.19
2023-03-05T15:50:21.768Z,38.62
2023-03-05T15:51:24.293Z,38.06
2023-03-05T15:52:26.879Z,38.43
2023-03-05T15:53:29.366Z,38.56
2023-03-05T15:54:35.463Z,38.36
2023-03-05T15:55:38.750Z,38.75
2023-03-05T15:56:41.545Z,38.31
2023-03-05T15:57:46.063Z,38.50
2023-03-05T15:58:49.663Z,38.64
2023-03-05T15:59:53.604Z,38.66
2023-03-05T16:00:56.049Z,38.08
2023-03-05T16:01:58.632Z,38.16
2023-03-05T16:03:01.201Z,38.38
2023-03-05T16:04:04.035Z,38.47
2023-03-05T16:05:08.213Z,38.65
2023-03-05T16:06:12.359Z,38.56
2023-03-05T16:07:15.685Z,38.88
2023-03-05T16:08:18.186Z,39.06
2023-03-05T16:09:22.126Z,38.91
2023-03-05T16:10:29.376Z,38.83
2023-03-05T16:11:35.703Z,38.20
2023-03-05T16:12:39.388Z,38.48
2023-03-05T16:13:42.290Z,39.04
2023-03-05T16:14:45.943Z,39.01
2023-03-05T16:15:48.853Z,38.37
2023-03-05T16:16:55.352Z,38.61
2023-03-05T16:18:00.696Z,38.68
2023-03-05T16:19:07.970Z,39.07
2023-03-05T16:20:12.682Z,38.59
2023-03-05T16:21:15.299Z,38.34
2023-03-05T16:22:17.820Z,38.70
2023-03-05T16:23:20.417Z,38.63
2023-03-05T16:24:22.909Z,38.78
2023-03-05T16:25:28.075Z,38.46
2023-03-05T16:26:30.978Z,38.87
2023-03-05T16:27:36.674Z,38.90
2023-03-05T16:28:39.173Z,38.56
2023-03-05T16:29:41.695Z,38.50
2023-03-05T16:30:44.229Z,38.60
2023-03-05T16:31:46.925Z,38.65
2023-03-05T16:32:49.901Z,38.59
2023-03-05T16:33:53.309Z,38.87
2023-03-05T16:34:57.155Z,38.84
2023-03-05T16:36:21.850Z,38.18
2023-03-05T16:37:25.139Z,38.62
2023-03-05T16:38:27.614Z,38.81
2023-03-05T16:39:30.218Z,38.51
2023-03-05T16:41:02.939Z,38.88
2023-03-05T16:41:59.171Z,38.29
2023-03-05T16:43:03.090Z,38.70
2023-03-05T16:44:05.779Z,38.30
2023-03-05T16:45:10.316Z,39.26
2023-03-05T16:46:13.911Z,38.76
2023-03-05T16:47:16.494Z,38.20
2023-03-05T16:48:19.019Z,38.77
2023-03-05T16:49:21.757Z,38.51
2023-03-05T16:50:24.791Z,38.53
2023-03-05T16:51:27.343Z,39.13
2023-03-05T16:52:29.922Z,38.39
2023-03-05T16:53:32.918Z,38.26
2023-03-05T16:54:35.412Z,38.50
2023-03-05T16:55:40.540Z,38.32
2023-03-05T16:56:43.076Z,38.65
2023-03-05T16:57:45.610Z,38.32
2023-03-05T16:58:49.219Z,38.13
2023-03-05T16:59:53.343Z,38.72
2023-03-05T17:00:56.233Z,38.93
2023-03-05T17:01:58.698Z,38.80
2023-03-05T17:03:01.218Z,38.53
2023-03-05T17:04:03.942Z,38.86
2023-03-05T17:05:06.980Z,38.85
2023-03-05T17:06:14.750Z,38.98
2023-03-05T17:07:17.521Z,38.50
2023-03-05T17:08:20.375Z,39.20
2023-03-05T17:09:23.250Z,38.89
2023-03-05T17:10:25.893Z,39.33
2023-03-05T17:11:31.103Z,38.92
2023-03-05T17:12:33.642Z,38.97
2023-03-05T17:13:36.766Z,39.45
2023-03-05T17:14:39.276Z,39.14
2023-03-05T17:17:04.566Z,39.38
2023-03-05T17:18:07.190Z,38.96
2023-03-05T17:19:09.784Z,39.09
2023-03-05T17:20:13.184Z,39.03
2023-03-05T17:21:16.173Z,39.23
2023-03-05T17:22:18.692Z,39.38
2023-03-05T17:23:21.253Z,38.90
2023-03-05T17:24:23.774Z,39.38
2023-03-05T17:25:26.272Z,38.98
2023-03-05T17:26:31.551Z,39.41
2023-03-05T17:27:36.126Z,39.41
2023-03-05T17:28:39.681Z,39.63
2023-03-05T17:29:42.222Z,39.05
2023-03-05T17:30:44.918Z,39.09
2023-03-05T17:31:49.722Z,39.83
2023-03-05T17:32:52.990Z,39.64
2023-03-05T17:33:55.717Z,39.07
2023-03-05T17:34:58.253Z,39.48
2023-03-05T17:36:01.415Z,39.46
2023-03-05T17:37:05.285Z,39.37
2023-03-05T17:38:08.169Z,38.76
2023-03-05T17:39:10.673Z,38.89
2023-03-05T17:40:14.564Z,39.10
2023-03-05T17:41:18.198Z,39.34
2023-03-05T17:42:23.396Z,39.22
2023-03-05T17:43:27.901Z,39.26
2023-03-05T17:44:30.893Z,39.30
2023-03-05T17:45:33.408Z,39.26
2023-03-05T17:46:35.950Z,39.30
2023-03-05T17:47:38.635Z,38.78
2023-03-05T17:48:41.344Z,38.86
2023-03-05T17:49:43.854Z,38.74
2023-03-05T17:50:46.574Z,39.37
2023-03-05T17:51:49.093Z,39.36
2023-03-05T17:52:51.599Z,39.42
2023-03-05T17:53:54.517Z,39.06
2023-03-05T17:54:58.373Z,38.76
2023-03-05T17:56:02.020Z,39.00
2023-03-05T17:57:04.729Z,38.85
2023-03-05T17:58:10.329Z,39.49
2023-03-05T17:59:14.704Z,39.23
2023-03-05T18:00:19.864Z,39.56
2023-03-05T18:01:24.495Z,39.00
2023-03-05T18:02:27.343Z,39.13
2023-03-05T18:03:29.883Z,39.20
2023-03-05T18:04:32.411Z,39.30
2023-03-05T18:05:35.160Z,39.38
2023-03-05T18:06:37.698Z,39.31
2023-03-05T18:07:40.249Z,39.49
2023-03-05T18:08:42.745Z,38.98
2023-03-05T18:09:45.341Z,39.50
2023-03-05T18:10:47.935Z,39.20
2023-03-05T18:11:50.392Z,39.42
2023-03-05T18:12:54.068Z,39.60
2023-03-05T18:13:59.210Z,39.41
2023-03-05T18:15:01.850Z,39.40
2023-03-05T18:16:04.752Z,40.26
2023-03-05T18:17:07.297Z,40.27
2023-03-05T18:18:09.824Z,39.89
2023-03-05T18:19:12.346Z,39.88
2023-03-05T18:20:27.098Z,40.41
2023-03-05T18:21:29.606Z,40.06
2023-03-05T18:22:32.146Z,40.01
2023-03-05T18:23:34.700Z,40.77
2023-03-05T18:24:37.204Z,39.94
2023-03-05T18:25:40.086Z,40.73
2023-03-05T18:26:42.580Z,40.85
2023-03-05T18:27:45.147Z,40.21
2023-03-05T18:28:47.643Z,40.83
2023-03-05T18:29:52.739Z,40.24
2023-03-05T18:30:55.426Z,40.76
2023-03-05T18:31:57.936Z,40.55
2023-03-05T18:33:00.733Z,40.90
2023-03-05T18:34:03.342Z,40.35
2023-03-05T18:35:06.823Z,40.74
2023-03-05T18:36:10.956Z,40.65
2023-03-05T18:37:13.576Z,40.75
2023-03-05T18:38:16.089Z,40.68
2023-03-05T18:39:18.763Z,40.27
2023-03-05T18:40:23.715Z,40.57
2023-03-05T18:41:28.176Z,40.24
2023-03-05T18:42:30.875Z,40.98
2023-03-05T18:43:34.376Z,40.31
2023-03-05T18:44:36.996Z,40.57
2023-03-05T18:45:42.164Z,40.19
2023-03-05T18:46:44.770Z,40.15
2023-03-05T18:47:47.587Z,40.45
2023-03-05T18:48:50.171Z,40.07
2023-03-05T18:49:52.742Z,40.43
2023-03-05T18:50:55.298Z,40.08
2023-03-05T18:51:57.802Z,40.49
2023-03-05T18:53:00.394Z,40.23
2023-03-05T18:54:03.205Z,40.41
2023-03-05T18:55:06.743Z,40.18
2023-03-05T18:56:09.743Z,39.78
2023-03-05T18:57:12.228Z,40.09
2023-03-05T18:58:14.687Z,39.62
2023-03-05T18:59:17.275Z,39.83
2023-03-05T19:00:23.115Z,40.17
2023-03-05T19:01:28.370Z,40.10
2023-03-05T19:02:30.912Z,39.93
2023-03-05T19:03:33.461Z,39.97
2023-03-05T19:04:35.988Z,39.60
2023-03-05T19:05:38.856Z,39.61
2023-03-05T19:06:41.425Z,39.54
2023-03-05T19:07:44.085Z,40.33
2023-03-05T19:08:47.237Z,40.31
2023-03-05T19:09:49.837Z,39.77
2023-03-05T19:10:52.314Z,40.14
2023-03-05T19:11:54.854Z,39.94
2023-03-05T19:12:57.809Z,40.06
2023-03-05T19:14:00.323Z,39.61
2023-03-05T19:15:04.205Z,39.88
2023-03-05T19:16:08.714Z,39.27
2023-03-05T19:17:13.839Z,39.74
2023-03-05T19:18:16.435Z,39.32
2023-03-05T19:19:19.217Z,39.32
2023-03-05T19:20:21.749Z,39.06
2023-03-05T19:21:24.434Z,39.20
2023-03-05T19:22:27.379Z,39.74
2023-03-05T19:23:29.876Z,39.49
2023-03-05T19:24:32.441Z,39.14
2023-03-05T19:25:36.527Z,39.16
2023-03-05T19:26:39.260Z,39.50
2023-03-05T19:27:41.871Z,39.20
2023-03-05T19:28:44.375Z,39.56
2023-03-05T19:29:46.908Z,39.21
2023-03-05T19:30:49.983Z,39.02
2023-03-05T19:31:54.100Z,39.38
2023-03-05T19:32:59.221Z,39.55
2023-03-05T19:34:02.007Z,39.01
2023-03-05T19:35:05.420Z,39.61
2023-03-05T19:36:09.681Z,39.12
2023-03-05T19:37:12.463Z,39.16
2023-03-05T19:38:15.061Z,39.19
2023-03-05T19:39:18.615Z,39.16
2023-03-05T19:40:22.473Z,39.01
2023-03-05T19:41:25.267Z,38.86
2023-03-05T19:42:27.783Z,38.98
2023-03-05T19:43:30.327Z,39.06
2023-03-05T19:44:33.073Z,38.77
2023-03-05T19:45:35.654Z,39.45
2023-03-05T19:46:38.198Z,39.23
2023-03-05T19:47:40.697Z,39.11
2023-03-05T19:48:45.860Z,39.02
2023-03-05T19:49:48.362Z,38.87
2023-03-05T19:50:50.896Z,40.63
2023-03-05T19:51:53.527Z,38.60
2023-03-05T19:52:56.116Z,38.88
2023-03-05T19:53:58.709Z,38.92
2023-03-05T19:55:01.214Z,38.75
2023-03-05T19:56:04.328Z,39.21
2023-03-05T19:57:06.931Z,39.12
2023-03-05T19:58:09.421Z,39.50
2023-03-05T19:59:12.180Z,39.25
2023-03-05T20:00:15.363Z,39.29
2023-03-05T20:01:19.704Z,39.03
2023-03-05T20:02:22.269Z,39.31
2023-03-05T20:03:24.841Z,39.18
2023-03-05T20:04:29.949Z,39.38
2023-03-05T20:05:32.459Z,38.77
2023-03-05T20:06:35.024Z,38.70
2023-03-05T20:07:37.522Z,39.22
2023-03-05T20:08:40.324Z,38.60
2023-03-05T20:09:42.942Z,39.12
2023-03-05T20:10:45.500Z,38.57
2023-03-05T20:11:48.104Z,38.80
2023-03-05T20:12:50.699Z,38.88
2023-03-05T20:13:53.239Z,38.70
2023-03-05T20:14:55.983Z,38.65
2023-03-05T20:15:58.790Z,38.82
2023-03-05T20:17:01.389Z,39.01
2023-03-05T20:18:04.287Z,38.41
2023-03-05T20:19:08.489Z,38.52
2023-03-05T20:20:18.070Z,38.72
2023-03-05T20:21:22.093Z,38.95
2023-03-05T20:22:24.798Z,38.39
2023-03-05T20:23:28.246Z,38.37
2023-03-05T20:24:30.942Z,38.35
2023-03-05T20:25:33.488Z,38.26
2023-03-05T20:26:37.707Z,38.74
2023-03-05T20:27:40.274Z,38.21
2023-03-05T20:28:42.822Z,38.63
2023-03-05T20:29:45.303Z,38.61
2023-03-05T20:30:53.489Z,38.36
2023-03-05T20:31:55.986Z,38.22
2023-03-05T20:32:58.508Z,38.67
2023-03-05T20:34:01.189Z,38.75
2023-03-05T20:35:03.904Z,38.53
2023-03-05T20:36:09.615Z,39.12
2023-03-05T20:37:12.169Z,39.15
2023-03-05T20:38:15.442Z,39.26
2023-03-05T20:39:17.930Z,39.16
2023-03-05T20:40:20.473Z,38.51
2023-03-05T20:41:23.024Z,38.34
2023-03-05T20:42:25.513Z,38.53
2023-03-05T20:43:30.305Z,38.73
2023-03-05T20:44:34.459Z,38.88
2023-03-05T20:45:37.665Z,38.39
2023-03-05T20:46:40.912Z,38.35
2023-03-05T20:47:43.763Z,38.76
2023-03-05T20:48:47.734Z,38.22
2023-03-05T20:49:54.491Z,38.64
2023-03-05T20:50:57.633Z,38.54
2023-03-05T20:52:02.780Z,38.78
2023-03-05T20:53:05.298Z,38.76
2023-03-05T20:54:11.163Z,38.71
2023-03-05T20:55:13.661Z,38.22
2023-03-05T20:56:16.248Z,38.58
2023-03-05T20:57:18.802Z,37.91
2023-03-05T20:58:21.283Z,38.12
2023-03-05T20:59:23.964Z,38.69
2023-03-05T21:00:26.730Z,38.56
2023-03-05T21:01:30.551Z,38.05
2023-03-05T21:02:33.044Z,38.29
2023-03-05T21:03:35.620Z,38.31
2023-03-05T21:04:38.155Z,38.20
2023-03-05T21:05:40.813Z,38.31
2023-03-05T21:06:43.320Z,37.87
2023-03-05T21:07:48.869Z,37.85
2023-03-05T21:08:51.454Z,37.93
2023-03-05T21:09:53.978Z,37.91
2023-03-05T21:10:56.497Z,37.80
2023-03-05T21:11:59.219Z,37.80
2023-03-05T21:13:01.708Z,37.92
2023-03-05T21:14:04.270Z,38.31
2023-03-05T21:15:11.822Z,38.04
2023-03-05T21:16:17.538Z,38.20
2023-03-05T21:17:20.116Z,37.90
2023-03-05T21:18:22.670Z,38.56
2023-03-05T21:19:25.635Z,38.74
2023-03-05T21:20:30.442Z,38.69
2023-03-05T21:21:33.175Z,38.42
2023-03-05T21:22:35.908Z,38.61
2023-03-05T21:23:41.050Z,38.56
2023-03-05T21:24:43.581Z,38.57
2023-03-05T21:25:46.697Z,38.64
2023-03-05T21:26:49.200Z,38.29
2023-03-05T21:27:55.847Z,38.21
2023-03-05T21:28:58.349Z,37.77
2023-03-05T21:30:01.053Z,36.88
2023-03-05T21:31:07.813Z,36.40
2023-03-05T21:32:10.415Z,35.76
2023-03-05T21:33:14.763Z,35.03
2023-03-05T21:34:17.472Z,34.73
2023-03-05T21:35:22.111Z,35.05
2023-03-05T21:36:24.807Z,34.79
2023-03-05T21:37:27.546Z,34.18
2023-03-05T21:38:30.140Z,34.05
2023-03-05T21:39:35.386Z,34.11
2023-03-05T21:40:41.546Z,33.58
2023-03-05T21:41:44.089Z,33.36
2023-03-05T21:42:47.468Z,33.75
2023-03-05T21:43:49.977Z,33.56
2023-03-05T21:44:54.022Z,32.90
2023-03-05T21:45:57.862Z,33.30
2023-03-05T21:47:00.400Z,33.25
2023-03-05T21:48:03.015Z,33.17
2023-03-05T21:49:05.526Z,32.95
2023-03-05T21:50:11.244Z,32.30
2023-03-05T21:51:17.424Z,32.13
2023-03-05T21:52:20.083Z,32.02
2023-03-05T21:53:23.232Z,32.01
2023-03-05T21:54:27.380Z,31.90
2023-03-05T21:55:33.180Z,31.83
2023-03-05T21:56:35.851Z,31.91
2023-03-05T21:57:38.423Z,32.39
2023-03-05T21:58:40.894Z,32.37
2023-03-05T21:59:43.435Z,31.71
2023-03-05T22:00:45.949Z,32.03
2023-03-05T22:01:48.474Z,31.44
2023-03-05T22:02:51.198Z,31.88
2023-03-05T22:03:53.720Z,31.65
2023-03-05T22:04:56.241Z,31.80
2023-03-05T22:05:58.825Z,31.35
2023-03-05T22:07:01.314Z,31.49
2023-03-05T22:08:04.708Z,31.59
2023-03-05T22:09:07.215Z,31.49
2023-03-05T22:10:13.188Z,31.00
2023-03-05T22:11:19.028Z,31.51
2023-03-05T22:12:22.423Z,31.37
2023-03-05T22:13:25.071Z,31.35
2023-03-05T22:14:27.731Z,31.05
2023-03-05T22:15:30.489Z,30.69
2023-03-05T22:16:33.006Z,30.81
2023-03-05T22:17:35.522Z,30.83
2023-03-05T22:18:38.109Z,30.77
2023-03-05T22:19:40.590Z,30.91
2023-03-05T22:20:43.895Z,30.62
2023-03-05T22:21:46.526Z,30.48
2023-03-05T22:22:49.012Z,30.41
2023-03-05T22:23:51.478Z,30.47
2023-03-05T22:24:53.952Z,30.46
2023-03-05T22:25:57.373Z,30.47
2023-03-05T22:27:02.509Z,30.50
2023-03-05T22:28:05.605Z,30.81
2023-03-05T22:29:08.777Z,30.32
2023-03-05T22:30:13.081Z,30.26
2023-03-05T22:31:20.469Z,30.73
2023-03-05T22:32:23.087Z,30.69
2023-03-05T22:33:26.278Z,30.97
2023-03-05T22:34:28.918Z,31.36
2023-03-05T22:35:31.447Z,31.22
2023-03-05T23:14:34.478Z,33.96
